sensor_id;sensor_type;location;lat;lon;timestamp;P1;durP1;ratioP1;P2;durP2;ratioP2
5363;SDS011;2705;41.410;2.160;2023-07-20T00:01:34;20.87;;;8.17;;
5363;SDS011;2705;41.410;2.160;2023-07-20T00:04:05;13.03;;;7.40;;
5363;SDS011;2705;41.410;2.160;2023-07-20T00:06:34;14.53;;;7.50;;
5363;SDS011;2705;41.410;2.160;2023-07-20T00:09:07;17.93;;;7.63;;
5363;SDS011;2705;41.410;2.160;2023-07-20T00:11:37;13.07;;;7.27;;
5363;SDS011;2705;41.410;2.160;2023-07-20T00:14:07;17.70;;;7.30;;
5363;SDS011;2705;41.410;2.160;2023-07-20T00:16:37;12.23;;;7.10;;
5363;SDS011;2705;41.410;2.160;2023-07-20T00:19:06;13.13;;;8.00;;
5363;SDS011;2705;41.410;2.160;2023-07-20T00:21:39;11.37;;;6.40;;
5363;SDS011;2705;41.410;2.160;2023-07-20T00:24:09;18.03;;;7.13;;
5363;SDS011;2705;41.410;2.160;2023-07-20T00:26:39;23.13;;;8.57;;
5363;SDS011;2705;41.410;2.160;2023-07-20T00:29:09;16.27;;;7.90;;
5363;SDS011;2705;41.410;2.160;2023-07-20T00:31:39;13.90;;;7.40;;
5363;SDS011;2705;41.410;2.160;2023-07-20T00:34:10;21.43;;;7.57;;
5363;SDS011;2705;41.410;2.160;2023-07-20T00:36:40;10.17;;;6.70;;
5363;SDS011;2705;41.410;2.160;2023-07-20T00:39:09;14.10;;;7.30;;
5363;SDS011;2705;41.410;2.160;2023-07-20T00:41:39;14.87;;;7.83;;
5363;SDS011;2705;41.410;2.160;2023-07-20T00:44:09;15.87;;;7.97;;
5363;SDS011;2705;41.410;2.160;2023-07-20T00:46:39;13.83;;;6.43;;
5363;SDS011;2705;41.410;2.160;2023-07-20T00:49:11;13.40;;;7.10;;
5363;SDS011;2705;41.410;2.160;2023-07-20T00:51:40;13.47;;;7.77;;
5363;SDS011;2705;41.410;2.160;2023-07-20T00:54:10;13.87;;;7.30;;
5363;SDS011;2705;41.410;2.160;2023-07-20T00:56:39;17.67;;;7.27;;
5363;SDS011;2705;41.410;2.160;2023-07-20T00:59:11;16.60;;;7.57;;
5363;SDS011;2705;41.410;2.160;2023-07-20T01:01:40;15.73;;;6.70;;
5363;SDS011;2705;41.410;2.160;2023-07-20T01:04:10;14.13;;;6.30;;
5363;SDS011;2705;41.410;2.160;2023-07-20T01:06:43;10.40;;;6.70;;
5363;SDS011;2705;41.410;2.160;2023-07-20T01:09:16;11.63;;;6.93;;
5363;SDS011;2705;41.410;2.160;2023-07-20T01:11:49;11.53;;;6.50;;
5363;SDS011;2705;41.410;2.160;2023-07-20T01:14:22;22.23;;;7.57;;
5363;SDS011;2705;41.410;2.160;2023-07-20T01:16:52;16.83;;;7.17;;
5363;SDS011;2705;41.410;2.160;2023-07-20T01:19:21;14.70;;;7.20;;
5363;SDS011;2705;41.410;2.160;2023-07-20T01:21:52;12.20;;;7.37;;
5363;SDS011;2705;41.410;2.160;2023-07-20T01:30:14;16.23;;;8.27;;
5363;SDS011;2705;41.410;2.160;2023-07-20T01:32:46;19.00;;;7.80;;
5363;SDS011;2705;41.410;2.160;2023-07-20T01:35:16;25.93;;;15.03;;
5363;SDS011;2705;41.410;2.160;2023-07-20T01:37:46;17.83;;;7.47;;
5363;SDS011;2705;41.410;2.160;2023-07-20T01:40:16;14.73;;;7.03;;
5363;SDS011;2705;41.410;2.160;2023-07-20T01:42:46;17.20;;;7.60;;
5363;SDS011;2705;41.410;2.160;2023-07-20T01:45:15;15.80;;;7.73;;
5363;SDS011;2705;41.410;2.160;2023-07-20T01:47:46;16.87;;;7.27;;
5363;SDS011;2705;41.410;2.160;2023-07-20T01:50:15;17.37;;;7.20;;
5363;SDS011;2705;41.410;2.160;2023-07-20T01:52:44;17.00;;;6.83;;
5363;SDS011;2705;41.410;2.160;2023-07-20T01:55:14;16.47;;;8.47;;
5363;SDS011;2705;41.410;2.160;2023-07-20T01:57:43;10.67;;;6.50;;
5363;SDS011;2705;41.410;2.160;2023-07-20T02:00:12;13.80;;;6.83;;
5363;SDS011;2705;41.410;2.160;2023-07-20T02:02:41;16.73;;;8.90;;
5363;SDS011;2705;41.410;2.160;2023-07-20T02:05:13;13.40;;;6.93;;
5363;SDS011;2705;41.410;2.160;2023-07-20T02:07:42;14.70;;;7.60;;
5363;SDS011;2705;41.410;2.160;2023-07-20T02:10:11;13.80;;;8.37;;
5363;SDS011;2705;41.410;2.160;2023-07-20T02:12:40;17.17;;;7.70;;
5363;SDS011;2705;41.410;2.160;2023-07-20T02:15:10;12.70;;;7.60;;
5363;SDS011;2705;41.410;2.160;2023-07-20T02:17:40;17.90;;;7.90;;
5363;SDS011;2705;41.410;2.160;2023-07-20T02:20:13;15.60;;;7.50;;
5363;SDS011;2705;41.410;2.160;2023-07-20T02:22:42;16.37;;;7.40;;
5363;SDS011;2705;41.410;2.160;2023-07-20T02:25:11;14.47;;;8.13;;
5363;SDS011;2705;41.410;2.160;2023-07-20T02:27:41;17.40;;;7.67;;
5363;SDS011;2705;41.410;2.160;2023-07-20T02:30:10;15.03;;;8.07;;
5363;SDS011;2705;41.410;2.160;2023-07-20T02:32:39;14.20;;;7.27;;
5363;SDS011;2705;41.410;2.160;2023-07-20T02:35:14;12.43;;;7.43;;
5363;SDS011;2705;41.410;2.160;2023-07-20T02:37:44;21.17;;;8.00;;
5363;SDS011;2705;41.410;2.160;2023-07-20T02:40:13;17.57;;;7.63;;
5363;SDS011;2705;41.410;2.160;2023-07-20T02:42:42;23.33;;;8.57;;
5363;SDS011;2705;41.410;2.160;2023-07-20T02:45:11;11.70;;;7.43;;
5363;SDS011;2705;41.410;2.160;2023-07-20T02:47:40;12.60;;;7.70;;
5363;SDS011;2705;41.410;2.160;2023-07-20T02:50:11;16.33;;;8.33;;
5363;SDS011;2705;41.410;2.160;2023-07-20T02:52:42;23.17;;;7.33;;
5363;SDS011;2705;41.410;2.160;2023-07-20T02:55:12;18.13;;;7.93;;
5363;SDS011;2705;41.410;2.160;2023-07-20T02:57:41;20.27;;;7.50;;
5363;SDS011;2705;41.410;2.160;2023-07-20T03:00:11;16.90;;;8.60;;
5363;SDS011;2705;41.410;2.160;2023-07-20T03:02:43;19.87;;;8.13;;
5363;SDS011;2705;41.410;2.160;2023-07-20T03:05:15;16.73;;;8.40;;
5363;SDS011;2705;41.410;2.160;2023-07-20T03:07:46;18.13;;;8.90;;
5363;SDS011;2705;41.410;2.160;2023-07-20T03:10:15;16.97;;;8.53;;
5363;SDS011;2705;41.410;2.160;2023-07-20T03:12:45;15.67;;;8.57;;
5363;SDS011;2705;41.410;2.160;2023-07-20T03:15:14;20.53;;;9.73;;
5363;SDS011;2705;41.410;2.160;2023-07-20T03:17:44;17.30;;;9.03;;
5363;SDS011;2705;41.410;2.160;2023-07-20T03:20:13;17.97;;;8.90;;
5363;SDS011;2705;41.410;2.160;2023-07-20T03:22:43;18.50;;;9.00;;
5363;SDS011;2705;41.410;2.160;2023-07-20T03:25:14;22.03;;;9.30;;
5363;SDS011;2705;41.410;2.160;2023-07-20T03:27:45;21.93;;;9.20;;
5363;SDS011;2705;41.410;2.160;2023-07-20T03:30:14;23.23;;;9.10;;
5363;SDS011;2705;41.410;2.160;2023-07-20T03:32:44;21.57;;;9.60;;
5363;SDS011;2705;41.410;2.160;2023-07-20T03:35:13;19.67;;;9.40;;
5363;SDS011;2705;41.410;2.160;2023-07-20T03:37:43;18.93;;;10.23;;
5363;SDS011;2705;41.410;2.160;2023-07-20T03:40:13;22.37;;;10.33;;
5363;SDS011;2705;41.410;2.160;2023-07-20T03:42:43;19.13;;;10.23;;
5363;SDS011;2705;41.410;2.160;2023-07-20T03:45:12;17.87;;;8.97;;
5363;SDS011;2705;41.410;2.160;2023-07-20T03:47:42;17.50;;;9.93;;
5363;SDS011;2705;41.410;2.160;2023-07-20T03:50:13;16.97;;;9.07;;
5363;SDS011;2705;41.410;2.160;2023-07-20T03:52:42;22.67;;;9.10;;
5363;SDS011;2705;41.410;2.160;2023-07-20T03:55:11;18.07;;;9.67;;
5363;SDS011;2705;41.410;2.160;2023-07-20T03:57:42;17.53;;;8.87;;
5363;SDS011;2705;41.410;2.160;2023-07-20T04:00:12;23.20;;;9.40;;
5363;SDS011;2705;41.410;2.160;2023-07-20T04:02:43;21.00;;;9.47;;
5363;SDS011;2705;41.410;2.160;2023-07-20T04:05:12;21.10;;;8.90;;
5363;SDS011;2705;41.410;2.160;2023-07-20T04:07:41;20.27;;;9.57;;
5363;SDS011;2705;41.410;2.160;2023-07-20T04:10:11;15.57;;;8.60;;
5363;SDS011;2705;41.410;2.160;2023-07-20T04:12:40;17.93;;;9.17;;
5363;SDS011;2705;41.410;2.160;2023-07-20T04:15:12;26.27;;;9.37;;
5363;SDS011;2705;41.410;2.160;2023-07-20T04:17:41;17.23;;;9.40;;
5363;SDS011;2705;41.410;2.160;2023-07-20T04:20:10;27.80;;;9.53;;
5363;SDS011;2705;41.410;2.160;2023-07-20T04:22:40;25.10;;;9.80;;
5363;SDS011;2705;41.410;2.160;2023-07-20T04:25:12;19.63;;;9.43;;
5363;SDS011;2705;41.410;2.160;2023-07-20T04:27:41;19.90;;;10.63;;
5363;SDS011;2705;41.410;2.160;2023-07-20T04:30:12;18.20;;;9.60;;
5363;SDS011;2705;41.410;2.160;2023-07-20T04:32:42;22.63;;;9.40;;
5363;SDS011;2705;41.410;2.160;2023-07-20T04:35:17;24.83;;;9.93;;
5363;SDS011;2705;41.410;2.160;2023-07-20T04:37:48;19.27;;;10.20;;
5363;SDS011;2705;41.410;2.160;2023-07-20T04:40:20;21.17;;;9.87;;
5363;SDS011;2705;41.410;2.160;2023-07-20T04:42:50;19.70;;;9.00;;
5363;SDS011;2705;41.410;2.160;2023-07-20T04:45:21;20.90;;;10.57;;
5363;SDS011;2705;41.410;2.160;2023-07-20T04:47:51;27.40;;;10.40;;
5363;SDS011;2705;41.410;2.160;2023-07-20T04:50:21;23.13;;;10.77;;
5363;SDS011;2705;41.410;2.160;2023-07-20T04:52:52;32.20;;;10.40;;
5363;SDS011;2705;41.410;2.160;2023-07-20T04:55:22;23.50;;;11.63;;
5363;SDS011;2705;41.410;2.160;2023-07-20T04:57:51;20.40;;;10.20;;
5363;SDS011;2705;41.410;2.160;2023-07-20T05:00:24;30.27;;;12.10;;
5363;SDS011;2705;41.410;2.160;2023-07-20T05:02:53;19.70;;;9.33;;
5363;SDS011;2705;41.410;2.160;2023-07-20T05:05:23;18.47;;;8.80;;
5363;SDS011;2705;41.410;2.160;2023-07-20T05:07:52;23.10;;;9.13;;
5363;SDS011;2705;41.410;2.160;2023-07-20T05:10:22;24.23;;;10.30;;
5363;SDS011;2705;41.410;2.160;2023-07-20T05:12:51;24.43;;;9.90;;
5363;SDS011;2705;41.410;2.160;2023-07-20T05:15:21;35.80;;;10.33;;
5363;SDS011;2705;41.410;2.160;2023-07-20T05:17:53;15.10;;;8.57;;
5363;SDS011;2705;41.410;2.160;2023-07-20T05:20:23;20.40;;;8.77;;
5363;SDS011;2705;41.410;2.160;2023-07-20T05:22:53;17.73;;;8.50;;
5363;SDS011;2705;41.410;2.160;2023-07-20T05:25:23;13.73;;;7.73;;
5363;SDS011;2705;41.410;2.160;2023-07-20T05:27:57;20.70;;;9.70;;
5363;SDS011;2705;41.410;2.160;2023-07-20T05:30:26;19.13;;;9.97;;
5363;SDS011;2705;41.410;2.160;2023-07-20T05:32:57;26.40;;;9.20;;
5363;SDS011;2705;41.410;2.160;2023-07-20T05:35:27;22.83;;;9.47;;
5363;SDS011;2705;41.410;2.160;2023-07-20T05:37:56;17.60;;;9.67;;
5363;SDS011;2705;41.410;2.160;2023-07-20T05:40:25;27.17;;;9.63;;
5363;SDS011;2705;41.410;2.160;2023-07-20T05:42:55;23.60;;;10.47;;
5363;SDS011;2705;41.410;2.160;2023-07-20T05:45:24;19.87;;;9.23;;
5363;SDS011;2705;41.410;2.160;2023-07-20T05:47:53;23.80;;;9.10;;
5363;SDS011;2705;41.410;2.160;2023-07-20T05:50:24;25.13;;;10.17;;
5363;SDS011;2705;41.410;2.160;2023-07-20T05:52:54;20.87;;;9.87;;
5363;SDS011;2705;41.410;2.160;2023-07-20T05:55:23;20.80;;;9.37;;
5363;SDS011;2705;41.410;2.160;2023-07-20T05:57:53;23.93;;;8.73;;
5363;SDS011;2705;41.410;2.160;2023-07-20T06:00:22;20.33;;;10.90;;
5363;SDS011;2705;41.410;2.160;2023-07-20T06:02:53;26.03;;;10.13;;
5363;SDS011;2705;41.410;2.160;2023-07-20T06:05:24;17.23;;;9.23;;
5363;SDS011;2705;41.410;2.160;2023-07-20T06:07:55;22.53;;;10.67;;
5363;SDS011;2705;41.410;2.160;2023-07-20T06:10:25;26.93;;;12.27;;
5363;SDS011;2705;41.410;2.160;2023-07-20T06:12:54;26.60;;;10.80;;
5363;SDS011;2705;41.410;2.160;2023-07-20T06:15:24;25.97;;;10.23;;
5363;SDS011;2705;41.410;2.160;2023-07-20T06:17:54;23.33;;;10.10;;
5363;SDS011;2705;41.410;2.160;2023-07-20T06:20:27;16.53;;;9.37;;
5363;SDS011;2705;41.410;2.160;2023-07-20T06:22:56;21.93;;;10.10;;
5363;SDS011;2705;41.410;2.160;2023-07-20T06:25:25;18.07;;;9.07;;
5363;SDS011;2705;41.410;2.160;2023-07-20T06:27:55;32.47;;;11.00;;
5363;SDS011;2705;41.410;2.160;2023-07-20T06:30:24;26.50;;;9.67;;
5363;SDS011;2705;41.410;2.160;2023-07-20T06:32:53;20.77;;;9.37;;
5363;SDS011;2705;41.410;2.160;2023-07-20T06:35:23;19.70;;;9.43;;
5363;SDS011;2705;41.410;2.160;2023-07-20T06:37:54;32.17;;;14.00;;
5363;SDS011;2705;41.410;2.160;2023-07-20T06:40:45;18.97;;;9.30;;
5363;SDS011;2705;41.410;2.160;2023-07-20T06:43:15;22.93;;;9.90;;
5363;SDS011;2705;41.410;2.160;2023-07-20T06:45:50;21.67;;;10.20;;
5363;SDS011;2705;41.410;2.160;2023-07-20T06:48:21;25.67;;;10.50;;
5363;SDS011;2705;41.410;2.160;2023-07-20T06:50:50;34.90;;;20.73;;
5363;SDS011;2705;41.410;2.160;2023-07-20T06:53:22;21.50;;;10.33;;
5363;SDS011;2705;41.410;2.160;2023-07-20T06:55:51;23.77;;;10.37;;
5363;SDS011;2705;41.410;2.160;2023-07-20T06:58:21;22.37;;;10.97;;
5363;SDS011;2705;41.410;2.160;2023-07-20T07:00:50;30.60;;;10.13;;
5363;SDS011;2705;41.410;2.160;2023-07-20T07:03:20;24.30;;;9.80;;
5363;SDS011;2705;41.410;2.160;2023-07-20T07:05:55;30.00;;;11.47;;
5363;SDS011;2705;41.410;2.160;2023-07-20T07:08:26;21.53;;;9.33;;
5363;SDS011;2705;41.410;2.160;2023-07-20T07:10:55;21.43;;;11.10;;
5363;SDS011;2705;41.410;2.160;2023-07-20T07:13:24;28.67;;;10.83;;
5363;SDS011;2705;41.410;2.160;2023-07-20T07:15:54;27.57;;;10.30;;
5363;SDS011;2705;41.410;2.160;2023-07-20T07:18:23;29.10;;;10.23;;
5363;SDS011;2705;41.410;2.160;2023-07-20T07:20:53;23.47;;;11.57;;
5363;SDS011;2705;41.410;2.160;2023-07-20T07:23:23;23.50;;;10.70;;
5363;SDS011;2705;41.410;2.160;2023-07-20T07:25:54;26.30;;;10.17;;
5363;SDS011;2705;41.410;2.160;2023-07-20T07:28:23;24.10;;;10.77;;
5363;SDS011;2705;41.410;2.160;2023-07-20T07:30:52;24.03;;;10.20;;
5363;SDS011;2705;41.410;2.160;2023-07-20T07:33:24;21.70;;;10.17;;
5363;SDS011;2705;41.410;2.160;2023-07-20T07:35:53;29.57;;;9.90;;
5363;SDS011;2705;41.410;2.160;2023-07-20T07:38:41;20.10;;;9.07;;
5363;SDS011;2705;41.410;2.160;2023-07-20T07:41:48;17.87;;;9.30;;
5363;SDS011;2705;41.410;2.160;2023-07-20T07:44:53;24.10;;;9.50;;
5363;SDS011;2705;41.410;2.160;2023-07-20T07:47:58;24.13;;;9.33;;
5363;SDS011;2705;41.410;2.160;2023-07-20T07:50:28;17.67;;;8.10;;
5363;SDS011;2705;41.410;2.160;2023-07-20T07:52:57;24.00;;;9.07;;
5363;SDS011;2705;41.410;2.160;2023-07-20T07:55:26;20.67;;;8.40;;
5363;SDS011;2705;41.410;2.160;2023-07-20T07:57:57;20.80;;;7.97;;
5363;SDS011;2705;41.410;2.160;2023-07-20T08:00:27;30.50;;;10.27;;
5363;SDS011;2705;41.410;2.160;2023-07-20T08:02:56;28.43;;;7.13;;
5363;SDS011;2705;41.410;2.160;2023-07-20T08:05:25;23.50;;;7.93;;
5363;SDS011;2705;41.410;2.160;2023-07-20T08:07:54;19.73;;;8.57;;
5363;SDS011;2705;41.410;2.160;2023-07-20T08:10:24;22.67;;;8.70;;
5363;SDS011;2705;41.410;2.160;2023-07-20T08:12:53;16.37;;;8.27;;
5363;SDS011;2705;41.410;2.160;2023-07-20T08:15:25;17.03;;;8.27;;
5363;SDS011;2705;41.410;2.160;2023-07-20T08:17:54;26.67;;;10.33;;
5363;SDS011;2705;41.410;2.160;2023-07-20T08:20:24;27.97;;;10.20;;
5363;SDS011;2705;41.410;2.160;2023-07-20T08:22:54;28.03;;;8.40;;
5363;SDS011;2705;41.410;2.160;2023-07-20T08:25:25;25.97;;;8.60;;
5363;SDS011;2705;41.410;2.160;2023-07-20T08:27:54;23.03;;;9.23;;
5363;SDS011;2705;41.410;2.160;2023-07-20T08:30:25;19.57;;;8.10;;
5363;SDS011;2705;41.410;2.160;2023-07-20T08:32:54;19.73;;;7.90;;
5363;SDS011;2705;41.410;2.160;2023-07-20T08:35:24;19.40;;;8.27;;
5363;SDS011;2705;41.410;2.160;2023-07-20T08:37:54;18.90;;;8.30;;
5363;SDS011;2705;41.410;2.160;2023-07-20T08:40:24;23.63;;;8.37;;
5363;SDS011;2705;41.410;2.160;2023-07-20T08:42:53;22.87;;;7.97;;
5363;SDS011;2705;41.410;2.160;2023-07-20T08:45:23;19.97;;;8.17;;
5363;SDS011;2705;41.410;2.160;2023-07-20T08:47:56;21.10;;;8.20;;
5363;SDS011;2705;41.410;2.160;2023-07-20T08:50:27;20.73;;;8.50;;
5363;SDS011;2705;41.410;2.160;2023-07-20T08:52:58;27.53;;;8.13;;
5363;SDS011;2705;41.410;2.160;2023-07-20T08:55:28;14.57;;;7.80;;
5363;SDS011;2705;41.410;2.160;2023-07-20T08:57:58;28.70;;;8.97;;
5363;SDS011;2705;41.410;2.160;2023-07-20T09:00:28;31.70;;;8.60;;
5363;SDS011;2705;41.410;2.160;2023-07-20T09:02:59;21.03;;;8.50;;
5363;SDS011;2705;41.410;2.160;2023-07-20T09:05:30;26.67;;;7.30;;
5363;SDS011;2705;41.410;2.160;2023-07-20T09:07:59;15.13;;;7.17;;
5363;SDS011;2705;41.410;2.160;2023-07-20T09:10:30;21.33;;;8.20;;
5363;SDS011;2705;41.410;2.160;2023-07-20T09:13:00;13.37;;;7.67;;
5363;SDS011;2705;41.410;2.160;2023-07-20T09:15:29;24.33;;;9.07;;
5363;SDS011;2705;41.410;2.160;2023-07-20T09:18:00;15.33;;;7.87;;
5363;SDS011;2705;41.410;2.160;2023-07-20T09:20:30;16.80;;;7.77;;
5363;SDS011;2705;41.410;2.160;2023-07-20T09:23:04;32.50;;;13.07;;
5363;SDS011;2705;41.410;2.160;2023-07-20T09:25:34;19.27;;;7.27;;
5363;SDS011;2705;41.410;2.160;2023-07-20T09:28:05;16.83;;;7.13;;
5363;SDS011;2705;41.410;2.160;2023-07-20T09:30:34;21.33;;;8.00;;
5363;SDS011;2705;41.410;2.160;2023-07-20T09:33:07;14.07;;;7.00;;
5363;SDS011;2705;41.410;2.160;2023-07-20T09:35:50;18.30;;;8.40;;
5363;SDS011;2705;41.410;2.160;2023-07-20T09:38:22;16.50;;;6.50;;
5363;SDS011;2705;41.410;2.160;2023-07-20T09:40:51;15.03;;;7.03;;
5363;SDS011;2705;41.410;2.160;2023-07-20T09:43:23;17.17;;;7.03;;
5363;SDS011;2705;41.410;2.160;2023-07-20T09:45:52;18.23;;;7.83;;
5363;SDS011;2705;41.410;2.160;2023-07-20T09:48:29;19.83;;;6.73;;
5363;SDS011;2705;41.410;2.160;2023-07-20T09:51:01;16.60;;;6.60;;
5363;SDS011;2705;41.410;2.160;2023-07-20T09:53:34;12.30;;;6.57;;
5363;SDS011;2705;41.410;2.160;2023-07-20T09:56:03;20.00;;;7.27;;
5363;SDS011;2705;41.410;2.160;2023-07-20T09:58:33;16.60;;;6.90;;
5363;SDS011;2705;41.410;2.160;2023-07-20T10:01:03;19.83;;;7.40;;
5363;SDS011;2705;41.410;2.160;2023-07-20T10:03:37;18.73;;;6.63;;
5363;SDS011;2705;41.410;2.160;2023-07-20T10:06:08;18.97;;;6.90;;
5363;SDS011;2705;41.410;2.160;2023-07-20T10:08:38;25.60;;;8.63;;
5363;SDS011;2705;41.410;2.160;2023-07-20T10:11:11;17.10;;;7.70;;
5363;SDS011;2705;41.410;2.160;2023-07-20T10:13:41;15.90;;;6.70;;
5363;SDS011;2705;41.410;2.160;2023-07-20T10:16:14;38.03;;;8.67;;
5363;SDS011;2705;41.410;2.160;2023-07-20T10:18:46;22.33;;;7.73;;
5363;SDS011;2705;41.410;2.160;2023-07-20T10:21:19;24.07;;;8.70;;
5363;SDS011;2705;41.410;2.160;2023-07-20T10:23:53;20.93;;;6.73;;
5363;SDS011;2705;41.410;2.160;2023-07-20T10:26:24;18.90;;;6.80;;
5363;SDS011;2705;41.410;2.160;2023-07-20T10:28:54;16.33;;;6.33;;
5363;SDS011;2705;41.410;2.160;2023-07-20T10:31:24;17.20;;;7.07;;
5363;SDS011;2705;41.410;2.160;2023-07-20T10:33:57;14.23;;;6.10;;
5363;SDS011;2705;41.410;2.160;2023-07-20T10:36:27;18.03;;;6.40;;
5363;SDS011;2705;41.410;2.160;2023-07-20T10:38:58;14.80;;;5.77;;
5363;SDS011;2705;41.410;2.160;2023-07-20T10:41:28;16.87;;;5.97;;
5363;SDS011;2705;41.410;2.160;2023-07-20T10:43:58;16.43;;;5.47;;
5363;SDS011;2705;41.410;2.160;2023-07-20T10:46:34;19.47;;;5.73;;
5363;SDS011;2705;41.410;2.160;2023-07-20T10:49:05;21.43;;;6.97;;
5363;SDS011;2705;41.410;2.160;2023-07-20T10:51:38;17.87;;;6.17;;
5363;SDS011;2705;41.410;2.160;2023-07-20T10:54:08;22.23;;;7.13;;
5363;SDS011;2705;41.410;2.160;2023-07-20T10:56:38;16.97;;;6.50;;
5363;SDS011;2705;41.410;2.160;2023-07-20T10:59:17;14.83;;;6.77;;
5363;SDS011;2705;41.410;2.160;2023-07-20T11:01:48;12.40;;;5.77;;
5363;SDS011;2705;41.410;2.160;2023-07-20T11:04:21;19.23;;;6.00;;
5363;SDS011;2705;41.410;2.160;2023-07-20T11:07:06;15.20;;;5.90;;
5363;SDS011;2705;41.410;2.160;2023-07-20T11:09:36;17.10;;;5.60;;
5363;SDS011;2705;41.410;2.160;2023-07-20T11:12:09;12.83;;;6.10;;
5363;SDS011;2705;41.410;2.160;2023-07-20T11:14:41;17.53;;;5.60;;
5363;SDS011;2705;41.410;2.160;2023-07-20T11:17:11;11.03;;;5.73;;
5363;SDS011;2705;41.410;2.160;2023-07-20T11:19:42;15.60;;;6.13;;
5363;SDS011;2705;41.410;2.160;2023-07-20T11:22:15;15.40;;;6.40;;
5363;SDS011;2705;41.410;2.160;2023-07-20T11:24:45;12.97;;;5.60;;
5363;SDS011;2705;41.410;2.160;2023-07-20T11:27:16;17.27;;;6.27;;
5363;SDS011;2705;41.410;2.160;2023-07-20T11:29:49;11.83;;;5.60;;
5363;SDS011;2705;41.410;2.160;2023-07-20T11:32:20;14.93;;;5.77;;
5363;SDS011;2705;41.410;2.160;2023-07-20T11:34:51;12.93;;;5.83;;
5363;SDS011;2705;41.410;2.160;2023-07-20T11:37:21;10.13;;;4.80;;
5363;SDS011;2705;41.410;2.160;2023-07-20T11:39:56;17.60;;;6.00;;
5363;SDS011;2705;41.410;2.160;2023-07-20T11:42:24;8.23;;;5.20;;
5363;SDS011;2705;41.410;2.160;2023-07-20T11:44:57;14.77;;;7.17;;
5363;SDS011;2705;41.410;2.160;2023-07-20T11:47:29;11.70;;;5.93;;
5363;SDS011;2705;41.410;2.160;2023-07-20T11:50:04;15.70;;;4.90;;
5363;SDS011;2705;41.410;2.160;2023-07-20T11:52:33;16.33;;;5.70;;
5363;SDS011;2705;41.410;2.160;2023-07-20T11:55:04;16.07;;;5.50;;
5363;SDS011;2705;41.410;2.160;2023-07-20T11:57:35;15.70;;;6.10;;
5363;SDS011;2705;41.410;2.160;2023-07-20T12:00:07;15.30;;;6.50;;
5363;SDS011;2705;41.410;2.160;2023-07-20T12:02:38;8.80;;;4.77;;
5363;SDS011;2705;41.410;2.160;2023-07-20T12:05:11;15.13;;;5.63;;
5363;SDS011;2705;41.410;2.160;2023-07-20T12:07:40;11.77;;;5.30;;
5363;SDS011;2705;41.410;2.160;2023-07-20T12:10:11;18.90;;;6.47;;
5363;SDS011;2705;41.410;2.160;2023-07-20T12:12:40;13.27;;;5.00;;
5363;SDS011;2705;41.410;2.160;2023-07-20T12:15:14;8.70;;;4.63;;
5363;SDS011;2705;41.410;2.160;2023-07-20T12:17:43;18.47;;;5.10;;
5363;SDS011;2705;41.410;2.160;2023-07-20T12:20:23;11.90;;;5.10;;
5363;SDS011;2705;41.410;2.160;2023-07-20T12:22:55;11.87;;;5.30;;
5363;SDS011;2705;41.410;2.160;2023-07-20T12:25:36;11.33;;;5.10;;
5363;SDS011;2705;41.410;2.160;2023-07-20T12:28:07;16.07;;;5.50;;
5363;SDS011;2705;41.410;2.160;2023-07-20T12:30:37;12.70;;;5.57;;
5363;SDS011;2705;41.410;2.160;2023-07-20T12:33:06;9.63;;;5.53;;
5363;SDS011;2705;41.410;2.160;2023-07-20T12:35:37;9.20;;;5.50;;
5363;SDS011;2705;41.410;2.160;2023-07-20T12:38:07;10.67;;;5.80;;
5363;SDS011;2705;41.410;2.160;2023-07-20T12:40:36;16.80;;;6.30;;
5363;SDS011;2705;41.410;2.160;2023-07-20T12:43:06;11.90;;;5.57;;
5363;SDS011;2705;41.410;2.160;2023-07-20T12:45:36;11.50;;;5.30;;
5363;SDS011;2705;41.410;2.160;2023-07-20T12:48:06;16.33;;;5.10;;
5363;SDS011;2705;41.410;2.160;2023-07-20T12:50:35;8.73;;;4.73;;
5363;SDS011;2705;41.410;2.160;2023-07-20T12:53:06;19.07;;;6.10;;
5363;SDS011;2705;41.410;2.160;2023-07-20T12:55:35;20.97;;;6.17;;
5363;SDS011;2705;41.410;2.160;2023-07-20T12:58:04;18.33;;;6.30;;
5363;SDS011;2705;41.410;2.160;2023-07-20T13:00:34;13.40;;;6.17;;
5363;SDS011;2705;41.410;2.160;2023-07-20T13:03:03;10.60;;;4.80;;
5363;SDS011;2705;41.410;2.160;2023-07-20T13:05:36;8.90;;;4.73;;
5363;SDS011;2705;41.410;2.160;2023-07-20T13:08:09;15.30;;;6.00;;
5363;SDS011;2705;41.410;2.160;2023-07-20T13:10:42;17.23;;;5.33;;
5363;SDS011;2705;41.410;2.160;2023-07-20T13:13:12;13.80;;;5.37;;
5363;SDS011;2705;41.410;2.160;2023-07-20T13:15:41;18.70;;;6.57;;
5363;SDS011;2705;41.410;2.160;2023-07-20T13:18:11;11.13;;;5.20;;
5363;SDS011;2705;41.410;2.160;2023-07-20T13:20:40;8.70;;;4.87;;
5363;SDS011;2705;41.410;2.160;2023-07-20T13:23:11;15.17;;;5.80;;
5363;SDS011;2705;41.410;2.160;2023-07-20T13:25:41;9.93;;;4.90;;
5363;SDS011;2705;41.410;2.160;2023-07-20T13:28:10;11.20;;;5.27;;
5363;SDS011;2705;41.410;2.160;2023-07-20T13:30:40;16.27;;;5.43;;
5363;SDS011;2705;41.410;2.160;2023-07-20T13:33:10;15.77;;;6.33;;
5363;SDS011;2705;41.410;2.160;2023-07-20T13:35:44;11.40;;;5.00;;
5363;SDS011;2705;41.410;2.160;2023-07-20T13:38:18;27.13;;;5.63;;
5363;SDS011;2705;41.410;2.160;2023-07-20T13:40:47;7.93;;;4.60;;
5363;SDS011;2705;41.410;2.160;2023-07-20T13:43:16;9.43;;;4.90;;
5363;SDS011;2705;41.410;2.160;2023-07-20T13:45:46;14.13;;;4.80;;
5363;SDS011;2705;41.410;2.160;2023-07-20T13:48:15;17.33;;;5.57;;
5363;SDS011;2705;41.410;2.160;2023-07-20T13:50:50;7.83;;;4.73;;
5363;SDS011;2705;41.410;2.160;2023-07-20T13:53:24;8.40;;;5.27;;
5363;SDS011;2705;41.410;2.160;2023-07-20T13:55:57;8.63;;;5.27;;
5363;SDS011;2705;41.410;2.160;2023-07-20T13:58:30;7.77;;;5.17;;
5363;SDS011;2705;41.410;2.160;2023-07-20T14:01:00;16.30;;;5.37;;
5363;SDS011;2705;41.410;2.160;2023-07-20T14:03:29;10.63;;;5.80;;
5363;SDS011;2705;41.410;2.160;2023-07-20T14:05:58;7.80;;;4.80;;
5363;SDS011;2705;41.410;2.160;2023-07-20T14:08:32;9.57;;;4.43;;
5363;SDS011;2705;41.410;2.160;2023-07-20T14:11:02;12.77;;;5.10;;
5363;SDS011;2705;41.410;2.160;2023-07-20T14:13:34;11.73;;;5.80;;
5363;SDS011;2705;41.410;2.160;2023-07-20T14:16:13;14.03;;;5.23;;
5363;SDS011;2705;41.410;2.160;2023-07-20T14:18:45;10.00;;;4.80;;
5363;SDS011;2705;41.410;2.160;2023-07-20T14:21:16;23.70;;;6.13;;
5363;SDS011;2705;41.410;2.160;2023-07-20T14:23:47;13.70;;;4.50;;
5363;SDS011;2705;41.410;2.160;2023-07-20T14:26:20;9.77;;;4.27;;
5363;SDS011;2705;41.410;2.160;2023-07-20T14:28:50;9.33;;;4.97;;
5363;SDS011;2705;41.410;2.160;2023-07-20T14:31:19;14.70;;;5.30;;
5363;SDS011;2705;41.410;2.160;2023-07-20T14:33:49;8.33;;;4.60;;
5363;SDS011;2705;41.410;2.160;2023-07-20T14:36:19;15.80;;;4.87;;
5363;SDS011;2705;41.410;2.160;2023-07-20T14:38:54;12.70;;;3.93;;
5363;SDS011;2705;41.410;2.160;2023-07-20T14:41:24;10.30;;;4.10;;
5363;SDS011;2705;41.410;2.160;2023-07-20T14:43:54;10.60;;;4.50;;
5363;SDS011;2705;41.410;2.160;2023-07-20T14:46:24;9.90;;;4.20;;
5363;SDS011;2705;41.410;2.160;2023-07-20T14:48:54;8.43;;;4.00;;
5363;SDS011;2705;41.410;2.160;2023-07-20T14:51:23;8.80;;;3.70;;
5363;SDS011;2705;41.410;2.160;2023-07-20T14:54:06;8.20;;;4.27;;
5363;SDS011;2705;41.410;2.160;2023-07-20T14:56:37;9.90;;;4.23;;
5363;SDS011;2705;41.410;2.160;2023-07-20T14:59:07;8.93;;;3.73;;
5363;SDS011;2705;41.410;2.160;2023-07-20T15:01:36;6.00;;;3.13;;
5363;SDS011;2705;41.410;2.160;2023-07-20T15:04:05;9.40;;;3.97;;
5363;SDS011;2705;41.410;2.160;2023-07-20T15:06:35;30.27;;;3.70;;
5363;SDS011;2705;41.410;2.160;2023-07-20T15:09:06;9.03;;;3.73;;
5363;SDS011;2705;41.410;2.160;2023-07-20T15:11:36;5.40;;;3.53;;
5363;SDS011;2705;41.410;2.160;2023-07-20T15:14:05;14.17;;;4.37;;
5363;SDS011;2705;41.410;2.160;2023-07-20T15:16:35;6.97;;;3.03;;
5363;SDS011;2705;41.410;2.160;2023-07-20T15:19:04;8.17;;;3.63;;
5363;SDS011;2705;41.410;2.160;2023-07-20T15:21:34;9.80;;;3.90;;
5363;SDS011;2705;41.410;2.160;2023-07-20T15:24:03;7.60;;;3.10;;
5363;SDS011;2705;41.410;2.160;2023-07-20T15:26:34;10.80;;;4.63;;
5363;SDS011;2705;41.410;2.160;2023-07-20T15:29:04;9.03;;;3.50;;